Terminal Aerodrome Forecast
Issued by NWS

Home | Current Version | Previous Version | Text Only | Print | Product List | Glossary On
Versions: 1 2 3 4 5 6 7 8 9 10 11 12 13
496
FTUS46 KPDT 290533
TAFALW
TAF
KALW 290533Z 2906/3006 18007KT P6SM -SHRA OVC070
     FM291100 18009KT P6SM -RA OVC040
     FM291700 19012KT 5SM -RA BR OVC030=

USA.gov is the U.S. government's official web portal to all federal, state and local government web resources and services.